Time;durP1;ratioP1;P1;durP2;ratioP2;P2;SDS_P1;SDS_P2;PMS_P1;PMS_P2;Temp;Humidity;BMP_temperature;BMP_pressure;BME280_temperature;BME280_humidity;BME280_pressure;Samples;Min_cycle;Max_cycle;Signal;HPM_P1;HPM_P2
2023/04/11 00:00:10;;;;;;;;;;;;;;;;;;5112060;28;2130;-46
2023/04/11 00:02:40;;;;;;;;;;;;;;;;;;5112120;28;1851;-47
2023/04/11 00:05:08;;;;;;;;;;;;;;;;;;5111895;28;1504;-42
2023/04/11 00:07:37;;;;;;;;;;;;;;;;;;5093632;28;2206;-40
2023/04/11 00:10:06;;;;;;;;;;;;;;;;;;5111387;28;2297;-50
2023/04/11 00:12:33;;;;;;;;;;;;;;;;;;5111615;28;1960;-40
2023/04/11 00:15:00;;;;;;;;;;;;;;;;;;5111736;28;1996;-41
2023/04/11 00:17:30;;;;;;;;;;;;;;;;;;5111609;28;2145;-46
2023/04/11 00:20:00;;;;;;;;;;;;;;;;;;5120726;28;1952;-41
2023/04/11 00:22:27;;;;;;;;;;;;;;;;;;5131935;28;1829;-40
2023/04/11 00:24:55;;;;;;;;;;;;;;;;;;5132060;28;2306;-38
2023/04/11 00:27:22;;;;;;;;;;;;;;;;;;5132137;28;1827;-42
2023/04/11 00:29:51;;;;;;;;;;;;;;;;;;5113579;28;1787;-40
2023/04/11 00:32:18;;;;;;;;;;;;;;;;;;5113518;28;2017;-41
2023/04/11 00:34:46;;;;;;;;;;;;;;;;;;5131970;28;2214;-40
2023/04/11 00:37:13;;;;;;;;;;;;;;;;;;5113551;28;1935;-41
2023/04/11 00:39:40;;;;;;;;;;;;;;;;;;5132531;28;1224;-41
2023/04/11 00:42:07;;;;;;;;;;;;;;;;;;5131945;28;2107;-40
2023/04/11 00:44:35;;;;;;;;;;;;;;;;;;5131954;28;2249;-39
2023/04/11 00:47:05;;;;;;;;;;;;;;;;;;5132001;27;1662;-46
2023/04/11 00:49:33;;;;;;;;;;;;;;;;;;5135799;27;2028;-41
2023/04/11 00:52:00;;;;;;;;;;;;;;;;;;5135881;27;1667;-40
2023/04/11 00:54:29;;;;;;;;;;;;;;;;;;5135795;27;1979;-40
2023/04/11 00:57:00;;;;;;;;;;;;;;;;;;5102826;28;2200;-42
2023/04/11 00:59:30;;;;;;;;;;;;;;;;;;5096799;28;1846;-41
2023/04/11 01:01:58;;;;;;;;;;;;;;;;;;5114858;28;1708;-46
2023/04/11 01:04:28;;;;;;;;;;;;;;;;;;5115001;28;1993;-41
2023/04/11 01:06:57;;;;;;;;;;;;;;;;;;5115062;28;1984;-41
2023/04/11 01:09:26;;;;;;;;;;;;;;;;;;5115025;28;1803;-40
2023/04/11 01:11:53;;;;;;;;;;;;;;;;;;5115301;28;1832;-40
2023/04/11 01:14:21;;;;;;;;;;;;;;;;;;5114765;28;2223;-41
2023/04/11 01:16:49;;;;;;;;;;;;;;;;;;5114863;28;2103;-41
2023/04/11 01:19:20;;;;;;;;;;;;;;;;;;5096789;28;2138;-40
2023/04/11 01:21:49;;;;;;;;;;;;;;;;;;5114864;28;1789;-40
2023/04/11 01:24:17;;;;;;;;;;;;;;;;;;5115104;28;1807;-41
2023/04/11 01:26:45;;;;;;;;;;;;;;;;;;5096618;28;1857;-46
2023/04/11 01:29:15;;;;;;;;;;;;;;;;;;5096515;28;2083;-41
2023/04/11 01:31:42;;;;;;;;;;;;;;;;;;5096313;28;1980;-39
2023/04/11 01:34:12;;;;;;;;;;;;;;;;;;5114722;28;1903;-41
2023/04/11 01:36:41;;;;;;;;;;;;;;;;;;5114585;28;2385;-42
2023/04/11 01:39:08;;;;;;;;;;;;;;;;;;5114501;28;2431;-41
2023/04/11 01:41:36;;;;;;;;;;;;;;;;;;5114401;28;1722;-47
2023/04/11 01:44:04;;;;;;;;;;;;;;;;;;5114261;28;1955;-41
2023/04/11 01:46:31;;;;;;;;;;;;;;;;;;5114150;28;1825;-55
2023/04/11 01:49:00;;;;;;;;;;;;;;;;;;5114263;28;1863;-41
2023/04/11 01:51:27;;;;;;;;;;;;;;;;;;5114242;28;2068;-40
2023/04/11 01:53:55;;;;;;;;;;;;;;;;;;5114086;28;1968;-40
2023/04/11 01:56:22;;;;;;;;;;;;;;;;;;5101740;28;2032;-41
2023/04/11 01:58:51;;;;;;;;;;;;;;;;;;5094762;28;1933;-48
2023/04/11 02:01:20;;;;;;;;;;;;;;;;;;5114222;28;1956;-45
2023/04/11 02:03:47;;;;;;;;;;;;;;;;;;5095881;28;1980;-43
2023/04/11 02:06:15;;;;;;;;;;;;;;;;;;5114130;28;1536;-40
2023/04/11 02:08:43;;;;;;;;;;;;;;;;;;5113388;28;1816;-40
2023/04/11 02:11:10;;;;;;;;;;;;;;;;;;5113756;28;2087;-41
2023/04/11 02:13:38;;;;;;;;;;;;;;;;;;5113564;28;1483;-40
2023/04/11 02:16:06;;;;;;;;;;;;;;;;;;5114254;28;2066;-41
2023/04/11 02:18:35;;;;;;;;;;;;;;;;;;5113742;28;1487;-41
2023/04/11 02:21:03;;;;;;;;;;;;;;;;;;5113721;28;1920;-43
2023/04/11 02:23:30;;;;;;;;;;;;;;;;;;5113596;28;1609;-41
2023/04/11 02:25:57;;;;;;;;;;;;;;;;;;5113669;28;1978;-40
2023/04/11 02:28:26;;;;;;;;;;;;;;;;;;5113659;28;1802;-42
2023/04/11 02:30:54;;;;;;;;;;;;;;;;;;5113454;28;1924;-41
2023/04/11 02:33:22;;;;;;;;;;;;;;;;;;5113402;28;1706;-41
2023/04/11 02:35:49;;;;;;;;;;;;;;;;;;5113359;28;2012;-47
2023/04/11 02:38:17;;;;;;;;;;;;;;;;;;5113301;28;1891;-41
2023/04/11 02:40:44;;;;;;;;;;;;;;;;;;5113350;28;1735;-40
2023/04/11 02:43:11;;;;;;;;;;;;;;;;;;5113199;28;2079;-41
2023/04/11 02:45:40;;;;;;;;;;;;;;;;;;5094861;28;1843;-40
2023/04/11 02:48:09;;;;;;;;;;;;;;;;;;5094604;28;1772;-41
2023/04/11 02:50:41;;;;;;;;;;;;;;;;;;5094670;28;1717;-40
2023/04/11 02:53:09;;;;;;;;;;;;;;;;;;5094033;28;2058;-41
2023/04/11 02:55:43;;;;;;;;;;;;;;;;;;5094407;28;2005;-41
2023/04/11 02:58:16;;;;;;;;;;;;;;;;;;5094622;28;1845;-42
2023/04/11 03:00:48;;;;;;;;;;;;;;;;;;5112652;28;1923;-40
2023/04/11 03:03:15;;;;;;;;;;;;;;;;;;5112862;28;1977;-46
2023/04/11 03:05:45;;;;;;;;;;;;;;;;;;5094528;28;1652;-41
2023/04/11 03:08:17;;;;;;;;;;;;;;;;;;5112962;28;2094;-49
2023/04/11 03:10:50;;;;;;;;;;;;;;;;;;5112494;28;1982;-41
2023/04/11 03:13:18;;;;;;;;;;;;;;;;;;5094254;28;1729;-41
2023/04/11 03:15:45;;;;;;;;;;;;;;;;;;5112693;28;2120;-57
2023/04/11 03:18:15;;;;;;;;;;;;;;;;;;5094404;28;2150;-41
2023/04/11 03:20:45;;;;;;;;;;;;;;;;;;5094256;28;2011;-41
2023/04/11 03:23:14;;;;;;;;;;;;;;;;;;5094408;28;2250;-41
2023/04/11 03:25:46;;;;;;;;;;;;;;;;;;5095077;28;2032;-41
2023/04/11 03:28:16;;;;;;;;;;;;;;;;;;5094081;28;2371;-40
2023/04/11 03:30:43;;;;;;;;;;;;;;;;;;5112354;28;2097;-41
2023/04/11 03:33:16;;;;;;;;;;;;;;;;;;5093966;28;1864;-40
2023/04/11 03:35:44;;;;;;;;;;;;;;;;;;5112023;28;2075;-41
2023/04/11 03:38:11;;;;;;;;;;;;;;;;;;5112166;28;1446;-42
2023/04/11 03:40:39;;;;;;;;;;;;;;;;;;5111936;28;1836;-40
2023/04/11 03:43:14;;;;;;;;;;;;;;;;;;5112141;28;2108;-48
2023/04/11 03:45:41;;;;;;;;;;;;;;;;;;5093779;28;1309;-40
2023/04/11 03:48:20;;;;;;;;;;;;;;;;;;5093556;28;1550;-41
2023/04/11 03:50:52;;;;;;;;;;;;;;;;;;5093744;28;1497;-41
2023/04/11 03:53:25;;;;;;;;;;;;;;;;;;5110831;28;1898;-41
2023/04/11 03:55:57;;;;;;;;;;;;;;;;;;5097091;28;2367;-41
2023/04/11 03:58:31;;;;;;;;;;;;;;;;;;5093534;28;1661;-41
2023/04/11 04:00:58;;;;;;;;;;;;;;;;;;5110600;28;2345;-45
2023/04/11 04:03:29;;;;;;;;;;;;;;;;;;5110579;28;2051;-41
2023/04/11 04:05:58;;;;;;;;;;;;;;;;;;5093558;28;1972;-42
2023/04/11 04:08:26;;;;;;;;;;;;;;;;;;5093421;28;2068;-42
2023/04/11 04:10:55;;;;;;;;;;;;;;;;;;5093695;28;2222;-42
2023/04/11 04:13:22;;;;;;;;;;;;;;;;;;5074881;28;10135;-42
2023/04/11 04:15:57;;;;;;;;;;;;;;;;;;5110230;28;1912;-44
2023/04/11 04:18:26;;;;;;;;;;;;;;;;;;5110442;28;2156;-52
2023/04/11 04:20:54;;;;;;;;;;;;;;;;;;5110411;28;2216;-42
2023/04/11 04:23:25;;;;;;;;;;;;;;;;;;5109567;28;2298;-55
2023/04/11 04:26:23;;;;;;;;;;;;;;;;;;5109949;28;1718;-46
2023/04/11 04:29:17;;;;;;;;;;;;;;;;;;5110246;28;2100;-41
2023/04/11 04:31:55;;;;;;;;;;;;;;;;;;5110122;28;1966;-48
2023/04/11 04:34:36;;;;;;;;;;;;;;;;;;5109957;28;1976;-41
2023/04/11 04:37:04;;;;;;;;;;;;;;;;;;5093651;28;2195;-42
2023/04/11 04:39:40;;;;;;;;;;;;;;;;;;5110038;28;1829;-43
2023/04/11 04:42:12;;;;;;;;;;;;;;;;;;5110141;28;2062;-41
2023/04/11 04:44:40;;;;;;;;;;;;;;;;;;5111400;28;1805;-44
2023/04/11 04:47:15;;;;;;;;;;;;;;;;;;5109693;28;1565;-42
2023/04/11 04:49:43;;;;;;;;;;;;;;;;;;5110066;28;1792;-60
2023/04/11 04:52:14;;;;;;;;;;;;;;;;;;5110140;28;2214;-43
2023/04/11 04:54:42;;;;;;;;;;;;;;;;;;5109888;28;2160;-42
2023/04/11 04:57:09;;;;;;;;;;;;;;;;;;5109858;28;2156;-42
2023/04/11 04:59:36;;;;;;;;;;;;;;;;;;5109678;28;1627;-42
2023/04/11 05:02:11;;;;;;;;;;;;;;;;;;5109759;28;1926;-42
2023/04/11 05:04:40;;;;;;;;;;;;;;;;;;5109902;28;1992;-42
2023/04/11 05:07:09;;;;;;;;;;;;;;;;;;5109807;28;1973;-42
2023/04/11 05:09:37;;;;;;;;;;;;;;;;;;5109971;28;1845;-42
2023/04/11 05:12:25;;;;;;;;;;;;;;;;;;5109664;28;1850;-42
2023/04/11 05:14:55;;;;;;;;;;;;;;;;;;5109846;28;2368;-42
2023/04/11 05:17:25;;;;;;;;;;;;;;;;;;5109765;28;2120;-42
2023/04/11 05:19:55;;;;;;;;;;;;;;;;;;5110881;28;1711;-42
2023/04/11 05:22:23;;;;;;;;;;;;;;;;;;5109492;28;1743;-45
2023/04/11 05:24:53;;;;;;;;;;;;;;;;;;5093151;28;1241;-42
2023/04/11 05:27:20;;;;;;;;;;;;;;;;;;5109646;28;1575;-42
2023/04/11 05:29:48;;;;;;;;;;;;;;;;;;5109394;28;1943;-43
2023/04/11 05:32:17;;;;;;;;;;;;;;;;;;5109727;28;1510;-42
2023/04/11 05:34:51;;;;;;;;;;;;;;;;;;5113588;28;2130;-43
2023/04/11 05:37:24;;;;;;;;;;;;;;;;;;5113176;28;2071;-42
2023/04/11 05:39:52;;;;;;;;;;;;;;;;;;5113134;28;1898;-42
2023/04/11 05:42:20;;;;;;;;;;;;;;;;;;5114455;28;2069;-44
2023/04/11 05:44:47;;;;;;;;;;;;;;;;;;5114351;28;1228;-52
2023/04/11 05:47:14;;;;;;;;;;;;;;;;;;5114101;28;1516;-49
2023/04/11 05:49:42;;;;;;;;;;;;;;;;;;5112732;28;1795;-42
2023/04/11 05:52:09;;;;;;;;;;;;;;;;;;5114226;28;2133;-41
2023/04/11 05:54:36;;;;;;;;;;;;;;;;;;5114273;28;2023;-46
2023/04/11 05:57:06;;;;;;;;;;;;;;;;;;5129784;27;1567;-42
2023/04/11 05:59:34;;;;;;;;;;;;;;;;;;5134700;27;1885;-42
2023/04/11 06:02:02;;;;;;;;;;;;;;;;;;5134697;27;1728;-46
2023/04/11 06:04:30;;;;;;;;;;;;;;;;;;5135107;27;2188;-41
2023/04/11 06:06:57;;;;;;;;;;;;;;;;;;5134496;27;1612;-42
2023/04/11 06:09:25;;;;;;;;;;;;;;;;;;5133721;27;1650;-47
2023/04/11 06:11:52;;;;;;;;;;;;;;;;;;5132608;27;1884;-43
2023/04/11 06:14:21;;;;;;;;;;;;;;;;;;5134460;27;1914;-49
2023/04/11 06:16:48;;;;;;;;;;;;;;;;;;5132598;27;1974;-48
2023/04/11 06:19:16;;;;;;;;;;;;;;;;;;5133620;27;1863;-44
2023/04/11 06:21:43;;;;;;;;;;;;;;;;;;5134047;27;2026;-60
2023/04/11 06:24:10;;;;;;;;;;;;;;;;;;5134141;27;1989;-42
2023/04/11 06:26:37;;;;;;;;;;;;;;;;;;5134188;27;2306;-53
2023/04/11 06:29:06;;;;;;;;;;;;;;;;;;5133962;27;1804;-44
2023/04/11 06:31:33;;;;;;;;;;;;;;;;;;5134464;27;1813;-43
2023/04/11 06:34:01;;;;;;;;;;;;;;;;;;5132587;27;1610;-48
2023/04/11 06:36:29;;;;;;;;;;;;;;;;;;5133925;27;2020;-43
2023/04/11 06:38:56;;;;;;;;;;;;;;;;;;5133854;27;1831;-43
2023/04/11 06:41:23;;;;;;;;;;;;;;;;;;5132575;27;2079;-54
2023/04/11 06:43:50;;;;;;;;;;;;;;;;;;5133598;27;2114;-43
2023/04/11 06:46:17;;;;;;;;;;;;;;;;;;5132933;27;2248;-42
2023/04/11 06:48:45;;;;;;;;;;;;;;;;;;5133608;27;2105;-49
2023/04/11 06:51:12;;;;;;;;;;;;;;;;;;5133700;27;1448;-44
2023/04/11 06:53:39;;;;;;;;;;;;;;;;;;5133406;27;2312;-43
2023/04/11 06:56:06;;;;;;;;;;;;;;;;;;5126157;27;1921;-43
2023/04/11 06:58:34;;;;;;;;;;;;;;;;;;5113140;28;1510;-42
2023/04/11 07:01:01;;;;;;;;;;;;;;;;;;5112850;28;1971;-44
2023/04/11 07:03:29;;;;;;;;;;;;;;;;;;5113057;28;2229;-43
2023/04/11 07:05:57;;;;;;;;;;;;;;;;;;5112685;28;2049;-43
2023/04/11 07:08:24;;;;;;;;;;;;;;;;;;5112900;28;1877;-44
2023/04/11 07:10:51;;;;;;;;;;;;;;;;;;5112585;28;1575;-44
2023/04/11 07:13:20;;;;;;;;;;;;;;;;;;5112575;28;1970;-42
2023/04/11 07:15:47;;;;;;;;;;;;;;;;;;5112739;28;1914;-48
2023/04/11 07:18:14;;;;;;;;;;;;;;;;;;5112592;28;2040;-51
2023/04/11 07:20:42;;;;;;;;;;;;;;;;;;5112650;28;1702;-43
2023/04/11 07:23:09;;;;;;;;;;;;;;;;;;5112713;28;1398;-42
2023/04/11 07:25:38;;;;;;;;;;;;;;;;;;5112391;28;1683;-43
2023/04/11 07:28:06;;;;;;;;;;;;;;;;;;5112918;28;2190;-43
2023/04/11 07:30:35;;;;;;;;;;;;;;;;;;5112454;28;1682;-43
2023/04/11 07:33:03;;;;;;;;;;;;;;;;;;5112293;28;1818;-43
2023/04/11 07:35:32;;;;;;;;;;;;;;;;;;5112305;28;1987;-44
2023/04/11 07:38:01;;;;;;;;;;;;;;;;;;5112115;28;1969;-44
2023/04/11 07:40:29;;;;;;;;;;;;;;;;;;5112257;28;1836;-55
2023/04/11 07:42:57;;;;;;;;;;;;;;;;;;5112212;28;1606;-43
2023/04/11 07:45:24;;;;;;;;;;;;;;;;;;5112000;28;1970;-59
2023/04/11 07:47:51;;;;;;;;;;;;;;;;;;5111910;28;2160;-44
2023/04/11 07:50:18;;;;;;;;;;;;;;;;;;5131959;27;1905;-43
2023/04/11 07:52:46;;;;;;;;;;;;;;;;;;5132571;27;1968;-53
2023/04/11 07:55:13;;;;;;;;;;;;;;;;;;5132460;27;1999;-43
2023/04/11 07:57:40;;;;;;;;;;;;;;;;;;5111166;28;2109;-45
2023/04/11 08:00:09;;;;;;;;;;;;;;;;;;5112116;28;1964;-43
2023/04/11 08:02:40;;;;;;;;;;;;;;;;;;5112098;28;2131;-43
2023/04/11 08:05:08;;;;;;;;;;;;;;;;;;5110389;28;1976;-59
2023/04/11 08:07:35;;;;;;;;;;;;;;;;;;5111780;28;1698;-43
2023/04/11 08:10:04;;;;;;;;;;;;;;;;;;5111737;28;2112;-43
2023/04/11 08:12:31;;;;;;;;;;;;;;;;;;5111717;28;2056;-46
2023/04/11 08:15:00;;;;;;;;;;;;;;;;;;5111777;28;2333;-44
2023/04/11 08:17:36;;;;;;;;;;;;;;;;;;5111625;28;1910;-46
2023/04/11 08:20:04;;;;;;;;;;;;;;;;;;5111517;28;2096;-54
2023/04/11 08:22:33;;;;;;;;;;;;;;;;;;5111593;28;1933;-50
2023/04/11 08:25:01;;;;;;;;;;;;;;;;;;5111668;28;1659;-44
2023/04/11 08:27:28;;;;;;;;;;;;;;;;;;5111530;28;1998;-59
2023/04/11 08:29:56;;;;;;;;;;;;;;;;;;5111459;28;1977;-43
2023/04/11 08:32:23;;;;;;;;;;;;;;;;;;5111670;28;1766;-56
2023/04/11 08:34:50;;;;;;;;;;;;;;;;;;5110076;28;2273;-58
2023/04/11 08:37:17;;;;;;;;;;;;;;;;;;5111503;28;2167;-42
2023/04/11 08:39:45;;;;;;;;;;;;;;;;;;5111430;28;1753;-42
2023/04/11 08:42:30;;;;;;;;;;;;;;;;;;5110682;28;1916;-43
2023/04/11 08:44:59;;;;;;;;;;;;;;;;;;5111360;28;2011;-43
2023/04/11 08:47:26;;;;;;;;;;;;;;;;;;5111131;28;1855;-44
2023/04/11 08:49:55;;;;;;;;;;;;;;;;;;5111389;28;2159;-43
2023/04/11 08:52:23;;;;;;;;;;;;;;;;;;5111269;28;2011;-52
2023/04/11 08:54:56;;;;;;;;;;;;;;;;;;5111217;28;1966;-42
2023/04/11 08:57:27;;;;;;;;;;;;;;;;;;5111032;28;1983;-43
2023/04/11 08:59:55;;;;;;;;;;;;;;;;;;5111331;28;2198;-42
2023/04/11 09:02:22;;;;;;;;;;;;;;;;;;5111267;28;1522;-45
2023/04/11 09:04:50;;;;;;;;;;;;;;;;;;5111242;28;1844;-47
2023/04/11 09:07:18;;;;;;;;;;;;;;;;;;5111126;28;2037;-48
2023/04/11 09:09:45;;;;;;;;;;;;;;;;;;5114296;28;1555;-43
2023/04/11 09:12:12;;;;;;;;;;;;;;;;;;5115188;28;1775;-42
2023/04/11 09:14:40;;;;;;;;;;;;;;;;;;5114892;28;2190;-42
2023/04/11 09:17:14;;;;;;;;;;;;;;;;;;5114950;28;2034;-42
2023/04/11 09:19:42;;;;;;;;;;;;;;;;;;5114780;28;2014;-42
2023/04/11 09:22:14;;;;;;;;;;;;;;;;;;5114986;28;2109;-43
2023/04/11 09:24:41;;;;;;;;;;;;;;;;;;5114700;28;2154;-43
2023/04/11 09:27:09;;;;;;;;;;;;;;;;;;5114749;28;2040;-41
2023/04/11 09:29:37;;;;;;;;;;;;;;;;;;5114814;28;1852;-42
2023/04/11 09:32:05;;;;;;;;;;;;;;;;;;5114760;28;1896;-42
2023/04/11 09:34:33;;;;;;;;;;;;;;;;;;5114514;28;1494;-42
2023/04/11 09:37:00;;;;;;;;;;;;;;;;;;5114453;28;1976;-44
2023/04/11 09:39:28;;;;;;;;;;;;;;;;;;5114498;28;2168;-42
2023/04/11 09:41:56;;;;;;;;;;;;;;;;;;5114376;28;1457;-42
2023/04/11 09:44:36;;;;;;;;;;;;;;;;;;5114426;28;2301;-52
2023/04/11 09:47:04;;;;;;;;;;;;;;;;;;5114116;28;1791;-48
2023/04/11 09:49:33;;;;;;;;;;;;;;;;;;5114356;28;2024;-43
2023/04/11 09:52:00;;;;;;;;;;;;;;;;;;5114277;28;1731;-42
2023/04/11 09:54:28;;;;;;;;;;;;;;;;;;5114375;28;1208;-42
2023/04/11 09:56:56;;;;;;;;;;;;;;;;;;5128246;27;1974;-42
2023/04/11 09:59:25;;;;;;;;;;;;;;;;;;5134768;27;1692;-41
2023/04/11 10:01:52;;;;;;;;;;;;;;;;;;5134349;27;1664;-44
2023/04/11 10:04:19;;;;;;;;;;;;;;;;;;5134925;27;1941;-42
2023/04/11 10:06:52;;;;;;;;;;;;;;;;;;5122757;27;1801;-46
2023/04/11 10:09:20;;;;;;;;;;;;;;;;;;5114169;28;2103;-42
2023/04/11 10:11:48;;;;;;;;;;;;;;;;;;5113993;28;2092;-41
2023/04/11 10:14:47;;;;;;;;;;;;;;;;;;5113376;28;1827;-42
2023/04/11 10:17:16;;;;;;;;;;;;;;;;;;5117050;27;1910;-42
2023/04/11 10:19:48;;;;;;;;;;;;;;;;;;5133695;27;2014;-42
2023/04/11 10:22:34;;;;;;;;;;;;;;;;;;5132683;27;2412;-43
2023/04/11 10:25:15;;;;;;;;;;;;;;;;;;5133833;27;1727;-46
2023/04/11 10:27:49;;;;;;;;;;;;;;;;;;5133850;27;1844;-41
2023/04/11 10:30:16;;;;;;;;;;;;;;;;;;5133985;27;2136;-43
2023/04/11 10:33:07;;;;;;;;;;;;;;;;;;5133576;27;1982;-44
2023/04/11 10:35:34;;;;;;;;;;;;;;;;;;5130842;27;1534;-45
2023/04/11 10:38:01;;;;;;;;;;;;;;;;;;5133639;27;1909;-45
2023/04/11 10:40:28;;;;;;;;;;;;;;;;;;5133789;27;1976;-42
2023/04/11 10:42:56;;;;;;;;;;;;;;;;;;5133764;27;1558;-41
2023/04/11 10:45:25;;;;;;;;;;;;;;;;;;5133724;27;2544;-42
2023/04/11 10:47:52;;;;;;;;;;;;;;;;;;5133908;27;1946;-42
2023/04/11 10:50:22;;;;;;;;;;;;;;;;;;5133753;27;1836;-42
2023/04/11 10:52:50;;;;;;;;;;;;;;;;;;5133847;27;1576;-42
2023/04/11 10:55:18;;;;;;;;;;;;;;;;;;5133108;27;1987;-42
2023/04/11 10:58:05;;;;;;;;;;;;;;;;;;5112973;28;1967;-42
2023/04/11 11:00:49;;;;;;;;;;;;;;;;;;5113108;28;1705;-43
2023/04/11 11:03:16;;;;;;;;;;;;;;;;;;5112940;28;2303;-43
2023/04/11 11:05:44;;;;;;;;;;;;;;;;;;5113756;28;1627;-44
2023/04/11 11:08:12;;;;;;;;;;;;;;;;;;5113202;28;1839;-52
2023/04/11 11:10:40;;;;;;;;;;;;;;;;;;5112931;28;1954;-42
2023/04/11 11:13:07;;;;;;;;;;;;;;;;;;5112902;28;2104;-42
2023/04/11 11:15:36;;;;;;;;;;;;;;;;;;5112916;28;1917;-42
2023/04/11 11:18:04;;;;;;;;;;;;;;;;;;5113082;28;1913;-42
2023/04/11 11:20:31;;;;;;;;;;;;;;;;;;5111542;28;2318;-41
2023/04/11 11:23:03;;;;;;;;;;;;;;;;;;5111342;27;2122;-42
2023/04/11 11:25:30;;;;;;;;;;;;;;;;;;5112653;28;1834;-56
2023/04/11 11:28:07;;;;;;;;;;;;;;;;;;5117499;27;2424;-41
2023/04/11 11:30:35;;;;;;;;;;;;;;;;;;5133234;27;1509;-41
2023/04/11 11:33:16;;;;;;;;;;;;;;;;;;5132810;27;2313;-43
2023/04/11 11:35:45;;;;;;;;;;;;;;;;;;5133061;27;1814;-43
2023/04/11 11:38:12;;;;;;;;;;;;;;;;;;5132751;27;1913;-42
2023/04/11 11:40:40;;;;;;;;;;;;;;;;;;5133034;27;1934;-42
2023/04/11 11:43:07;;;;;;;;;;;;;;;;;;5132699;27;2067;-43
2023/04/11 11:45:34;;;;;;;;;;;;;;;;;;5132847;27;1954;-41
2023/04/11 11:48:01;;;;;;;;;;;;;;;;;;5132522;27;1497;-42
2023/04/11 11:50:30;;;;;;;;;;;;;;;;;;5132525;27;1908;-47
2023/04/11 11:53:13;;;;;;;;;;;;;;;;;;5132877;27;2191;-41
2023/04/11 11:55:42;;;;;;;;;;;;;;;;;;5129100;27;2228;-41
2023/04/11 11:58:09;;;;;;;;;;;;;;;;;;5111992;28;1971;-41
2023/04/11 12:00:40;;;;;;;;;;;;;;;;;;5111698;28;2035;-43
2023/04/11 12:03:10;;;;;;;;;;;;;;;;;;5111654;28;1388;-46
2023/04/11 12:05:40;;;;;;;;;;;;;;;;;;5111730;28;1994;-41
2023/04/11 12:08:07;;;;;;;;;;;;;;;;;;5111729;28;1919;-41
2023/04/11 12:10:36;;;;;;;;;;;;;;;;;;5111792;28;2015;-41
2023/04/11 12:13:11;;;;;;;;;;;;;;;;;;5111463;28;1809;-42
2023/04/11 12:15:40;;;;;;;;;;;;;;;;;;5111701;28;1821;-51
2023/04/11 12:18:08;;;;;;;;;;;;;;;;;;5111549;28;2082;-42
2023/04/11 12:20:35;;;;;;;;;;;;;;;;;;5111605;28;2177;-41
2023/04/11 12:23:02;;;;;;;;;;;;;;;;;;5111661;28;1613;-41
2023/04/11 12:25:30;;;;;;;;;;;;;;;;;;5111254;28;2142;-42
2023/04/11 12:27:57;;;;;;;;;;;;;;;;;;5110930;28;1857;-42
2023/04/11 12:30:25;;;;;;;;;;;;;;;;;;5111648;28;2122;-41
2023/04/11 12:32:53;;;;;;;;;;;;;;;;;;5111484;28;1658;-42
2023/04/11 12:35:21;;;;;;;;;;;;;;;;;;5111513;28;1571;-42
2023/04/11 12:37:48;;;;;;;;;;;;;;;;;;5111269;28;2252;-41
2023/04/11 12:40:15;;;;;;;;;;;;;;;;;;5111356;28;1728;-43
2023/04/11 12:42:44;;;;;;;;;;;;;;;;;;5111366;28;1576;-41
2023/04/11 12:45:22;;;;;;;;;;;;;;;;;;5115490;28;1549;-41
2023/04/11 12:47:49;;;;;;;;;;;;;;;;;;5115258;28;1904;-52
2023/04/11 12:50:17;;;;;;;;;;;;;;;;;;5115160;28;2164;-41
2023/04/11 12:52:44;;;;;;;;;;;;;;;;;;5115295;28;2190;-50
2023/04/11 12:55:12;;;;;;;;;;;;;;;;;;5115474;28;1833;-42
2023/04/11 12:57:40;;;;;;;;;;;;;;;;;;5115076;28;2058;-41
2023/04/11 13:00:10;;;;;;;;;;;;;;;;;;5115246;28;1969;-41
2023/04/11 13:02:37;;;;;;;;;;;;;;;;;;5115218;28;2115;-42
2023/04/11 13:05:10;;;;;;;;;;;;;;;;;;5115302;28;1835;-41
2023/04/11 13:07:37;;;;;;;;;;;;;;;;;;5115203;28;2082;-50
2023/04/11 13:10:08;;;;;;;;;;;;;;;;;;5115173;28;1592;-41
2023/04/11 13:12:40;;;;;;;;;;;;;;;;;;5115067;28;1376;-41
2023/04/11 13:15:10;;;;;;;;;;;;;;;;;;5114935;28;1956;-53
2023/04/11 13:17:38;;;;;;;;;;;;;;;;;;5114597;28;1985;-44
2023/04/11 13:20:08;;;;;;;;;;;;;;;;;;5114840;28;1696;-50
2023/04/11 13:22:37;;;;;;;;;;;;;;;;;;5114944;28;1819;-42
2023/04/11 13:25:04;;;;;;;;;;;;;;;;;;5114810;28;1534;-42
2023/04/11 13:27:32;;;;;;;;;;;;;;;;;;5114745;28;1711;-41
2023/04/11 13:29:59;;;;;;;;;;;;;;;;;;5114717;28;2117;-42
2023/04/11 13:32:26;;;;;;;;;;;;;;;;;;5114569;28;1389;-57
2023/04/11 13:34:53;;;;;;;;;;;;;;;;;;5114448;28;1849;-55
2023/04/11 13:37:20;;;;;;;;;;;;;;;;;;5114554;28;1981;-41
2023/04/11 13:39:48;;;;;;;;;;;;;;;;;;5114455;28;1729;-58
2023/04/11 13:42:15;;;;;;;;;;;;;;;;;;5114349;28;2033;-59
2023/04/11 13:44:42;;;;;;;;;;;;;;;;;;5114289;28;1989;-59
2023/04/11 13:47:09;;;;;;;;;;;;;;;;;;5114126;28;1835;-41
2023/04/11 13:49:36;;;;;;;;;;;;;;;;;;5114303;28;2078;-41
2023/04/11 13:52:03;;;;;;;;;;;;;;;;;;5114486;28;1958;-42
2023/04/11 13:54:30;;;;;;;;;;;;;;;;;;5114249;28;1890;-44
2023/04/11 13:56:58;;;;;;;;;;;;;;;;;;5128552;27;1985;-41
2023/04/11 13:59:26;;;;;;;;;;;;;;;;;;5134727;27;2039;-40
2023/04/11 14:01:53;;;;;;;;;;;;;;;;;;5134619;27;1848;-42
2023/04/11 14:04:21;;;;;;;;;;;;;;;;;;5134653;27;1798;-41
2023/04/11 14:06:48;;;;;;;;;;;;;;;;;;5119186;27;2282;-40
2023/04/11 14:09:15;;;;;;;;;;;;;;;;;;5114041;28;1712;-42
2023/04/11 14:11:42;;;;;;;;;;;;;;;;;;5113821;28;1935;-41
2023/04/11 14:14:10;;;;;;;;;;;;;;;;;;5113701;28;1807;-41
2023/04/11 14:16:37;;;;;;;;;;;;;;;;;;5112979;28;1899;-48
2023/04/11 14:19:04;;;;;;;;;;;;;;;;;;5113276;28;2010;-41
2023/04/11 14:21:31;;;;;;;;;;;;;;;;;;5112209;28;1843;-47
2023/04/11 14:23:59;;;;;;;;;;;;;;;;;;5112966;28;2005;-42
2023/04/11 14:26:26;;;;;;;;;;;;;;;;;;5111700;28;1856;-45
2023/04/11 14:28:53;;;;;;;;;;;;;;;;;;5113530;28;1888;-41
2023/04/11 14:31:20;;;;;;;;;;;;;;;;;;5113456;28;1614;-58
2023/04/11 14:33:48;;;;;;;;;;;;;;;;;;5113561;28;2171;-42
2023/04/11 14:36:15;;;;;;;;;;;;;;;;;;5113373;28;2012;-42
2023/04/11 14:38:42;;;;;;;;;;;;;;;;;;5113047;28;1976;-43
2023/04/11 14:41:09;;;;;;;;;;;;;;;;;;5113642;28;1948;-53
2023/04/11 14:43:36;;;;;;;;;;;;;;;;;;5113776;28;1959;-40
2023/04/11 14:46:04;;;;;;;;;;;;;;;;;;5113362;28;2045;-42
2023/04/11 14:48:31;;;;;;;;;;;;;;;;;;5113413;28;1655;-42
2023/04/11 14:51:01;;;;;;;;;;;;;;;;;;5113146;28;1845;-40
2023/04/11 14:53:31;;;;;;;;;;;;;;;;;;5112885;28;1893;-38
2023/04/11 14:55:58;;;;;;;;;;;;;;;;;;5112658;28;1996;-41
2023/04/11 14:58:25;;;;;;;;;;;;;;;;;;5112858;28;2112;-41
2023/04/11 15:00:53;;;;;;;;;;;;;;;;;;5113037;28;2223;-54
2023/04/11 15:03:20;;;;;;;;;;;;;;;;;;5112425;28;1674;-54
2023/04/11 15:05:47;;;;;;;;;;;;;;;;;;5112345;28;2103;-46
2023/04/11 15:08:15;;;;;;;;;;;;;;;;;;5112651;28;1636;-45
2023/04/11 15:10:42;;;;;;;;;;;;;;;;;;5112757;28;1799;-42
2023/04/11 15:13:10;;;;;;;;;;;;;;;;;;5112818;28;1933;-48
2023/04/11 15:15:37;;;;;;;;;;;;;;;;;;5112720;28;1935;-49
2023/04/11 15:18:25;;;;;;;;;;;;;;;;;;5112571;28;1898;-54
2023/04/11 15:20:54;;;;;;;;;;;;;;;;;;5112598;28;2465;-54
2023/04/11 15:23:21;;;;;;;;;;;;;;;;;;5112415;28;1437;-59
2023/04/11 15:25:56;;;;;;;;;;;;;;;;;;5112552;28;2075;-56
2023/04/11 15:28:24;;;;;;;;;;;;;;;;;;5112363;28;1993;-58
2023/04/11 15:30:52;;;;;;;;;;;;;;;;;;5112242;28;1461;-55
2023/04/11 15:33:20;;;;;;;;;;;;;;;;;;5112080;28;2028;-41
2023/04/11 15:35:48;;;;;;;;;;;;;;;;;;5111896;28;1775;-44
2023/04/11 15:38:16;;;;;;;;;;;;;;;;;;5112075;28;1954;-48
2023/04/11 15:40:43;;;;;;;;;;;;;;;;;;5112088;28;2090;-41
2023/04/11 15:43:10;;;;;;;;;;;;;;;;;;5112205;28;1881;-41
2023/04/11 15:45:43;;;;;;;;;;;;;;;;;;5112119;28;1763;-40
2023/04/11 15:48:12;;;;;;;;;;;;;;;;;;5111940;28;2192;-47
2023/04/11 15:50:40;;;;;;;;;;;;;;;;;;5112408;28;2147;-42
2023/04/11 15:53:07;;;;;;;;;;;;;;;;;;5112492;28;2011;-41
2023/04/11 15:55:41;;;;;;;;;;;;;;;;;;5111744;28;2143;-41
2023/04/11 15:58:09;;;;;;;;;;;;;;;;;;5111784;28;1970;-57
2023/04/11 16:00:36;;;;;;;;;;;;;;;;;;5112012;28;1999;-44
2023/04/11 16:03:09;;;;;;;;;;;;;;;;;;5111928;28;1845;-44
2023/04/11 16:05:39;;;;;;;;;;;;;;;;;;5111723;28;1870;-42
2023/04/11 16:08:06;;;;;;;;;;;;;;;;;;5111788;28;1856;-48
2023/04/11 16:10:34;;;;;;;;;;;;;;;;;;5111978;28;2029;-45
2023/04/11 16:13:01;;;;;;;;;;;;;;;;;;5111672;28;2124;-41
2023/04/11 16:15:29;;;;;;;;;;;;;;;;;;5111629;28;1862;-41
2023/04/11 16:17:56;;;;;;;;;;;;;;;;;;5110655;28;2224;-41
2023/04/11 16:20:23;;;;;;;;;;;;;;;;;;5111559;28;2282;-56
2023/04/11 16:22:51;;;;;;;;;;;;;;;;;;5111482;28;1356;-41
2023/04/11 16:25:19;;;;;;;;;;;;;;;;;;5111479;28;1906;-41
2023/04/11 16:27:47;;;;;;;;;;;;;;;;;;5111717;28;2256;-41
2023/04/11 16:30:14;;;;;;;;;;;;;;;;;;5111759;28;1474;-40
2023/04/11 16:32:42;;;;;;;;;;;;;;;;;;5111731;28;1862;-41
2023/04/11 16:35:10;;;;;;;;;;;;;;;;;;5111620;28;1506;-40
2023/04/11 16:37:37;;;;;;;;;;;;;;;;;;5111248;28;1965;-41
2023/04/11 16:40:09;;;;;;;;;;;;;;;;;;5111346;28;1907;-41
2023/04/11 16:42:38;;;;;;;;;;;;;;;;;;5111333;28;1823;-41
2023/04/11 16:45:06;;;;;;;;;;;;;;;;;;5111236;28;1908;-44
2023/04/11 16:47:33;;;;;;;;;;;;;;;;;;5111205;28;1691;-43
2023/04/11 16:50:01;;;;;;;;;;;;;;;;;;5111223;28;2005;-48
2023/04/11 16:52:28;;;;;;;;;;;;;;;;;;5111266;28;1976;-41
2023/04/11 16:54:55;;;;;;;;;;;;;;;;;;5111322;28;2133;-43
2023/04/11 16:57:23;;;;;;;;;;;;;;;;;;5129206;28;1929;-42
2023/04/11 16:59:50;;;;;;;;;;;;;;;;;;5130305;28;2398;-39
2023/04/11 17:02:17;;;;;;;;;;;;;;;;;;5131938;27;1818;-40
2023/04/11 17:04:45;;;;;;;;;;;;;;;;;;5131692;27;2065;-43
2023/04/11 17:07:12;;;;;;;;;;;;;;;;;;5131461;28;2065;-49
2023/04/11 17:09:40;;;;;;;;;;;;;;;;;;5131579;27;1932;-42
2023/04/11 17:12:07;;;;;;;;;;;;;;;;;;5130823;28;2016;-42
2023/04/11 17:14:35;;;;;;;;;;;;;;;;;;5115479;27;1887;-43